AXM6315 WMKL-WMKK
Flight info
| Callsign | AXM6315 |
|---|---|
| Flight time | 0h 48m |
| Altitude | 31000 |
| Route | DCT ISTEL DCT RINBA Y507 KAKAK KAKAK3J |
| Aircraft | A20N/M-SDE2E3FGHIRWXY/LB1 |
Departure
| Time | 2026-04-25 08:51 |
|---|---|
| Airport | Langkawi International Airport (WMKL) |
Arrival
| Time | 2026-04-25 09:39 |
|---|---|
| Airport | Kuala Lumpur International Airport (WMKK) |
| Time | Latitude | Longitude | Altitude | Speed | Heading |
|---|---|---|---|---|---|
| 2026-04-25 08:23 | 6.34125 | 99.73280 | 35 ft | 0 kts | 303° |
| 2026-04-25 08:24 | 6.34173 | 99.73314 | 35 ft | 0 kts | 303° |
| 2026-04-25 08:43 | 6.34164 | 99.73327 | 35 ft | 2 kts | 310° |
| 2026-04-25 08:43 | 6.34153 | 99.73339 | 34 ft | 2 kts | 319° |
| 2026-04-25 08:43 | 6.34140 | 99.73349 | 35 ft | 2 kts | 338° |
| 2026-04-25 08:44 | 6.34124 | 99.73352 | 35 ft | 2 kts | 9° |
| 2026-04-25 08:44 | 6.34108 | 99.73347 | 34 ft | 2 kts | 31° |
| 2026-04-25 08:44 | 6.34103 | 99.73344 | 33 ft | 0 kts | 33° |
| 2026-04-25 08:46 | 6.34113 | 99.73354 | 35 ft | 4 kts | 52° |
| 2026-04-25 08:47 | 6.34098 | 99.73388 | 34 ft | 9 kts | 127° |
| 2026-04-25 08:47 | 6.34117 | 99.73450 | 36 ft | 13 kts | 35° |
| 2026-04-25 08:47 | 6.34205 | 99.73508 | 34 ft | 17 kts | 35° |
| 2026-04-25 08:47 | 6.34311 | 99.73580 | 36 ft | 20 kts | 34° |
| 2026-04-25 08:48 | 6.34413 | 99.73650 | 36 ft | 13 kts | 36° |
| 2026-04-25 08:48 | 6.34452 | 99.73733 | 37 ft | 12 kts | 101° |
| 2026-04-25 08:48 | 6.34446 | 99.73749 | 36 ft | 0 kts | 119° |
| 2026-04-25 08:49 | 6.34446 | 99.73750 | 36 ft | 1 kts | 119° |
| 2026-04-25 08:49 | 6.34432 | 99.73770 | 38 ft | 7 kts | 126° |
| 2026-04-25 08:49 | 6.34377 | 99.73810 | 38 ft | 13 kts | 172° |
| 2026-04-25 08:50 | 6.34275 | 99.73755 | 37 ft | 25 kts | 214° |
| 2026-04-25 08:50 | 6.34041 | 99.73595 | 38 ft | 66 kts | 216° |
| 2026-04-25 08:50 | 6.33480 | 99.73211 | 37 ft | 126 kts | 214° |
| 2026-04-25 08:50 | 6.32620 | 99.72625 | 47 ft | 170 kts | 215° |
| 2026-04-25 08:51 | 6.31615 | 99.71948 | 629 ft | 173 kts | 217° |
| 2026-04-25 08:51 | 6.30611 | 99.71307 | 1324 ft | 175 kts | 200° |
| 2026-04-25 08:51 | 6.29402 | 99.71302 | 1909 ft | 182 kts | 160° |
| 2026-04-25 08:51 | 6.28362 | 99.72095 | 2244 ft | 200 kts | 127° |
| 2026-04-25 08:52 | 6.27606 | 99.73349 | 2635 ft | 222 kts | 116° |
| 2026-04-25 08:52 | 6.26876 | 99.74795 | 3144 ft | 244 kts | 115° |
| 2026-04-25 08:52 | 6.26024 | 99.76352 | 3712 ft | 262 kts | 118° |
| 2026-04-25 08:52 | 6.25069 | 99.77930 | 4517 ft | 268 kts | 120° |
| 2026-04-25 08:53 | 6.24046 | 99.79526 | 5438 ft | 272 kts | 121° |
| 2026-04-25 08:53 | 6.23004 | 99.81121 | 6371 ft | 274 kts | 122° |
| 2026-04-25 08:53 | 6.21952 | 99.82719 | 7318 ft | 275 kts | 122° |
| 2026-04-25 08:53 | 6.20845 | 99.84300 | 8159 ft | 279 kts | 132° |
| 2026-04-25 08:54 | 6.19309 | 99.85474 | 8960 ft | 284 kts | 147° |
| 2026-04-25 08:54 | 6.17588 | 99.86513 | 9805 ft | 286 kts | 148° |
| 2026-04-25 08:54 | 6.15862 | 99.87525 | 10427 ft | 297 kts | 148° |
| 2026-04-25 08:54 | 6.14003 | 99.88619 | 10665 ft | 321 kts | 148° |
| 2026-04-25 08:55 | 6.12020 | 99.89799 | 10953 ft | 339 kts | 148° |
| 2026-04-25 08:55 | 6.09973 | 99.91025 | 11623 ft | 344 kts | 148° |
| 2026-04-25 08:55 | 6.07913 | 99.92261 | 12349 ft | 348 kts | 148° |
| 2026-04-25 08:55 | 6.05820 | 99.93519 | 13059 ft | 351 kts | 148° |
| 2026-04-25 08:56 | 6.03708 | 99.94789 | 13733 ft | 355 kts | 148° |
| 2026-04-25 08:56 | 6.01604 | 99.96053 | 14324 ft | 359 kts | 148° |
| 2026-04-25 08:56 | 5.99421 | 99.97365 | 14936 ft | 363 kts | 148° |
| 2026-04-25 08:56 | 5.97261 | 99.98663 | 15529 ft | 366 kts | 148° |
| 2026-04-25 08:57 | 5.95061 | 99.99986 | 16098 ft | 370 kts | 148° |
| 2026-04-25 08:57 | 5.92860 | 100.01308 | 16659 ft | 374 kts | 148° |
| 2026-04-25 08:57 | 5.90586 | 100.02674 | 17224 ft | 377 kts | 147° |
| 2026-04-25 08:57 | 5.88342 | 100.04022 | 17764 ft | 381 kts | 147° |
| 2026-04-25 08:58 | 5.86055 | 100.05396 | 18286 ft | 384 kts | 147° |
| 2026-04-25 08:58 | 5.83752 | 100.06780 | 18784 ft | 387 kts | 147° |
| 2026-04-25 08:58 | 5.81440 | 100.08169 | 19269 ft | 389 kts | 147° |
| 2026-04-25 08:58 | 5.79106 | 100.09571 | 19746 ft | 392 kts | 147° |
| 2026-04-25 08:59 | 5.76755 | 100.10984 | 20219 ft | 395 kts | 147° |
| 2026-04-25 08:59 | 5.74383 | 100.12408 | 20689 ft | 398 kts | 147° |
| 2026-04-25 08:59 | 5.71993 | 100.13844 | 21150 ft | 401 kts | 147° |
| 2026-04-25 08:59 | 5.69613 | 100.15273 | 21615 ft | 404 kts | 147° |
| 2026-04-25 09:00 | 5.67195 | 100.16725 | 22067 ft | 407 kts | 147° |
| 2026-04-25 09:00 | 5.64753 | 100.18191 | 22520 ft | 410 kts | 147° |
| 2026-04-25 09:00 | 5.62290 | 100.19670 | 22969 ft | 413 kts | 148° |
| 2026-04-25 09:00 | 5.59817 | 100.21155 | 23402 ft | 416 kts | 148° |
| 2026-04-25 09:01 | 5.57327 | 100.22650 | 23765 ft | 418 kts | 148° |
| 2026-04-25 09:01 | 5.54817 | 100.24156 | 24148 ft | 420 kts | 148° |
| 2026-04-25 09:01 | 5.52331 | 100.25648 | 24507 ft | 423 kts | 148° |
| 2026-04-25 09:01 | 5.49760 | 100.27190 | 24876 ft | 425 kts | 148° |
| 2026-04-25 09:02 | 5.47241 | 100.28702 | 25231 ft | 428 kts | 148° |
| 2026-04-25 09:02 | 5.44684 | 100.30236 | 25591 ft | 430 kts | 148° |
| 2026-04-25 09:02 | 5.42106 | 100.31783 | 25942 ft | 432 kts | 148° |
| 2026-04-25 09:02 | 5.39519 | 100.33334 | 26289 ft | 434 kts | 148° |
| 2026-04-25 09:03 | 5.36916 | 100.34896 | 26616 ft | 436 kts | 148° |
| 2026-04-25 09:03 | 5.34299 | 100.36465 | 26944 ft | 438 kts | 148° |
| 2026-04-25 09:03 | 5.31675 | 100.38039 | 27273 ft | 440 kts | 148° |
| 2026-04-25 09:03 | 5.29069 | 100.39601 | 27579 ft | 442 kts | 148° |
| 2026-04-25 09:04 | 5.26415 | 100.41192 | 27892 ft | 444 kts | 148° |
| 2026-04-25 09:04 | 5.23754 | 100.42788 | 28196 ft | 447 kts | 148° |
| 2026-04-25 09:04 | 5.21080 | 100.44391 | 28494 ft | 449 kts | 148° |
| 2026-04-25 09:04 | 5.18390 | 100.46003 | 28794 ft | 450 kts | 148° |
| 2026-04-25 09:05 | 5.15688 | 100.47622 | 29079 ft | 452 kts | 148° |
| 2026-04-25 09:05 | 5.12978 | 100.49246 | 29362 ft | 454 kts | 148° |
| 2026-04-25 09:05 | 5.10255 | 100.50877 | 29644 ft | 456 kts | 148° |
| 2026-04-25 09:05 | 5.07523 | 100.52514 | 29909 ft | 458 kts | 148° |
| 2026-04-25 09:06 | 5.04779 | 100.54158 | 30163 ft | 460 kts | 148° |
| 2026-04-25 09:06 | 5.02019 | 100.55811 | 30413 ft | 462 kts | 148° |
| 2026-04-25 09:06 | 4.99257 | 100.57465 | 30664 ft | 463 kts | 148° |
| 2026-04-25 09:07 | 4.93713 | 100.60786 | 30804 ft | 464 kts | 148° |
| 2026-04-25 09:07 | 4.88178 | 100.64099 | 30808 ft | 463 kts | 148° |
| 2026-04-25 09:08 | 4.82668 | 100.67398 | 30807 ft | 463 kts | 148° |
| 2026-04-25 09:08 | 4.77126 | 100.70715 | 30805 ft | 463 kts | 148° |
| 2026-04-25 09:09 | 4.71572 | 100.73997 | 30807 ft | 463 kts | 153° |
| 2026-04-25 09:09 | 4.68568 | 100.75161 | 30808 ft | 464 kts | 164° |
| 2026-04-25 09:09 | 4.65757 | 100.75901 | 30806 ft | 465 kts | 164° |
| 2026-04-25 09:10 | 4.59525 | 100.77510 | 30800 ft | 465 kts | 164° |
| 2026-04-25 09:10 | 4.53264 | 100.79143 | 30803 ft | 465 kts | 164° |
| 2026-04-25 09:11 | 4.44930 | 100.81328 | 30806 ft | 465 kts | 164° |
| 2026-04-25 09:11 | 4.38654 | 100.82975 | 30807 ft | 465 kts | 164° |
| 2026-04-25 09:12 | 4.32392 | 100.84617 | 30808 ft | 465 kts | 164° |
| 2026-04-25 09:12 | 4.26124 | 100.86261 | 30808 ft | 465 kts | 164° |
| 2026-04-25 09:13 | 4.19861 | 100.87903 | 30808 ft | 465 kts | 164° |
| 2026-04-25 09:13 | 4.13638 | 100.89534 | 30806 ft | 464 kts | 164° |
| 2026-04-25 09:14 | 4.07378 | 100.91175 | 30795 ft | 464 kts | 164° |
| 2026-04-25 09:14 | 4.01169 | 100.92803 | 30797 ft | 464 kts | 164° |
| 2026-04-25 09:15 | 3.94927 | 100.94441 | 30801 ft | 463 kts | 163° |
| 2026-04-25 09:15 | 3.91936 | 100.95603 | 30797 ft | 461 kts | 152° |
| 2026-04-25 09:15 | 3.89103 | 100.97122 | 30792 ft | 461 kts | 151° |
| 2026-04-25 09:16 | 3.83451 | 101.00176 | 30793 ft | 461 kts | 151° |
| 2026-04-25 09:16 | 3.77937 | 101.03150 | 30795 ft | 461 kts | 151° |
| 2026-04-25 09:17 | 3.72182 | 101.06251 | 30796 ft | 461 kts | 151° |
| 2026-04-25 09:18 | 3.66524 | 101.09299 | 30794 ft | 462 kts | 151° |
| 2026-04-25 09:18 | 3.63690 | 101.10824 | 30667 ft | 463 kts | 151° |
| 2026-04-25 09:18 | 3.60851 | 101.12353 | 30441 ft | 462 kts | 151° |
| 2026-04-25 09:18 | 3.58021 | 101.13877 | 30213 ft | 459 kts | 150° |
| 2026-04-25 09:19 | 3.55213 | 101.15389 | 29991 ft | 457 kts | 150° |
| 2026-04-25 09:19 | 3.52416 | 101.16894 | 29740 ft | 456 kts | 150° |
| 2026-04-25 09:19 | 3.49618 | 101.18401 | 29472 ft | 454 kts | 150° |
| 2026-04-25 09:19 | 3.46865 | 101.19883 | 28899 ft | 455 kts | 150° |
| 2026-04-25 09:20 | 3.44059 | 101.21393 | 28065 ft | 458 kts | 150° |
| 2026-04-25 09:20 | 3.41251 | 101.22904 | 27367 ft | 456 kts | 150° |
| 2026-04-25 09:20 | 3.38466 | 101.24403 | 26623 ft | 454 kts | 150° |
| 2026-04-25 09:20 | 3.35680 | 101.25902 | 25845 ft | 454 kts | 150° |
| 2026-04-25 09:21 | 3.32908 | 101.27393 | 25366 ft | 446 kts | 150° |
| 2026-04-25 09:21 | 3.30230 | 101.28833 | 25266 ft | 429 kts | 150° |
| 2026-04-25 09:21 | 3.27672 | 101.30208 | 25166 ft | 421 kts | 150° |
| 2026-04-25 09:21 | 3.25060 | 101.31616 | 25067 ft | 428 kts | 150° |
| 2026-04-25 09:22 | 3.22443 | 101.33026 | 24975 ft | 428 kts | 150° |
| 2026-04-25 09:22 | 3.19812 | 101.34441 | 24875 ft | 427 kts | 150° |
| 2026-04-25 09:22 | 3.17193 | 101.35850 | 24808 ft | 426 kts | 150° |
| 2026-04-25 09:22 | 3.14583 | 101.37254 | 24803 ft | 426 kts | 150° |
| 2026-04-25 09:23 | 3.11975 | 101.38657 | 24775 ft | 425 kts | 150° |
| 2026-04-25 09:23 | 3.09380 | 101.40053 | 24247 ft | 423 kts | 150° |
| 2026-04-25 09:23 | 3.06799 | 101.41441 | 23128 ft | 430 kts | 149° |
| 2026-04-25 09:23 | 3.04144 | 101.42870 | 21881 ft | 434 kts | 149° |
| 2026-04-25 09:24 | 3.01497 | 101.44293 | 20960 ft | 428 kts | 149° |
| 2026-04-25 09:24 | 2.98885 | 101.45696 | 20087 ft | 421 kts | 149° |
| 2026-04-25 09:24 | 2.96317 | 101.47076 | 19211 ft | 416 kts | 149° |
| 2026-04-25 09:24 | 2.93780 | 101.48440 | 18368 ft | 410 kts | 149° |
| 2026-04-25 09:25 | 2.91286 | 101.49781 | 17448 ft | 405 kts | 149° |
| 2026-04-25 09:25 | 2.88818 | 101.51108 | 16535 ft | 399 kts | 150° |
| 2026-04-25 09:25 | 2.86408 | 101.52405 | 15657 ft | 393 kts | 150° |
| 2026-04-25 09:25 | 2.84005 | 101.53697 | 14780 ft | 388 kts | 150° |
| 2026-04-25 09:26 | 2.81644 | 101.54967 | 13942 ft | 384 kts | 150° |
| 2026-04-25 09:26 | 2.79309 | 101.56222 | 13086 ft | 379 kts | 150° |
| 2026-04-25 09:26 | 2.76993 | 101.57466 | 12221 ft | 374 kts | 150° |
| 2026-04-25 09:26 | 2.74719 | 101.58688 | 11360 ft | 370 kts | 150° |
| 2026-04-25 09:27 | 2.72467 | 101.59899 | 10554 ft | 365 kts | 150° |
| 2026-04-25 09:27 | 2.70263 | 101.61083 | 10110 ft | 350 kts | 150° |
| 2026-04-25 09:27 | 2.68206 | 101.62186 | 9908 ft | 329 kts | 150° |
| 2026-04-25 09:27 | 2.66248 | 101.63237 | 9738 ft | 309 kts | 150° |
| 2026-04-25 09:28 | 2.64396 | 101.64232 | 9407 ft | 296 kts | 150° |
| 2026-04-25 09:28 | 2.62621 | 101.65250 | 8812 ft | 292 kts | 144° |
| 2026-04-25 09:28 | 2.60937 | 101.66380 | 8201 ft | 291 kts | 144° |
| 2026-04-25 09:28 | 2.59279 | 101.67488 | 7895 ft | 278 kts | 144° |
| 2026-04-25 09:29 | 2.57715 | 101.68528 | 7748 ft | 261 kts | 144° |
| 2026-04-25 09:29 | 2.56250 | 101.69499 | 7557 ft | 245 kts | 144° |
| 2026-04-25 09:29 | 2.54837 | 101.70439 | 7102 ft | 242 kts | 144° |
| 2026-04-25 09:29 | 2.53434 | 101.71373 | 6613 ft | 241 kts | 144° |
| 2026-04-25 09:30 | 2.52058 | 101.72295 | 6144 ft | 240 kts | 144° |
| 2026-04-25 09:30 | 2.50675 | 101.73224 | 5657 ft | 239 kts | 143° |
| 2026-04-25 09:30 | 2.49298 | 101.74150 | 5201 ft | 238 kts | 143° |
| 2026-04-25 09:30 | 2.47932 | 101.75066 | 4771 ft | 236 kts | 143° |
| 2026-04-25 09:31 | 2.46575 | 101.75977 | 4327 ft | 234 kts | 143° |
| 2026-04-25 09:31 | 2.45234 | 101.76878 | 3899 ft | 231 kts | 143° |
| 2026-04-25 09:31 | 2.44023 | 101.77917 | 3376 ft | 228 kts | 121° |
| 2026-04-25 09:31 | 2.43556 | 101.79355 | 3213 ft | 214 kts | 90° |
| 2026-04-25 09:32 | 2.43863 | 101.80757 | 3109 ft | 202 kts | 62° |
| 2026-04-25 09:32 | 2.44767 | 101.81791 | 2938 ft | 198 kts | 35° |
| 2026-04-25 09:32 | 2.46055 | 101.82265 | 2701 ft | 198 kts | 6° |
| 2026-04-25 09:32 | 2.47453 | 101.82172 | 2665 ft | 204 kts | 356° |
| 2026-04-25 09:33 | 2.48863 | 101.82035 | 2588 ft | 208 kts | 357° |
| 2026-04-25 09:33 | 2.50273 | 101.81911 | 2521 ft | 203 kts | 356° |
| 2026-04-25 09:33 | 2.51699 | 101.81789 | 2526 ft | 204 kts | 357° |
| 2026-04-25 09:33 | 2.53037 | 101.81559 | 2507 ft | 187 kts | 342° |
| 2026-04-25 09:34 | 2.54162 | 101.81009 | 2506 ft | 173 kts | 330° |
| 2026-04-25 09:34 | 2.55136 | 101.80387 | 2508 ft | 159 kts | 328° |
| 2026-04-25 09:34 | 2.56028 | 101.79786 | 2518 ft | 154 kts | 328° |
| 2026-04-25 09:34 | 2.56950 | 101.79164 | 2507 ft | 165 kts | 328° |
| 2026-04-25 09:35 | 2.57893 | 101.78522 | 2513 ft | 163 kts | 327° |
| 2026-04-25 09:35 | 2.58828 | 101.77892 | 2504 ft | 160 kts | 327° |
| 2026-04-25 09:35 | 2.59760 | 101.77262 | 2479 ft | 162 kts | 327° |
| 2026-04-25 09:35 | 2.60699 | 101.76626 | 2299 ft | 164 kts | 327° |
| 2026-04-25 09:36 | 2.61630 | 101.75997 | 2098 ft | 164 kts | 327° |
| 2026-04-25 09:36 | 2.62563 | 101.75368 | 1885 ft | 159 kts | 326° |
| 2026-04-25 09:36 | 2.63490 | 101.74739 | 1691 ft | 163 kts | 325° |
| 2026-04-25 09:36 | 2.64436 | 101.74100 | 1481 ft | 163 kts | 326° |
| 2026-04-25 09:37 | 2.65358 | 101.73477 | 1268 ft | 159 kts | 324° |
| 2026-04-25 09:37 | 2.66285 | 101.72844 | 1063 ft | 164 kts | 324° |
| 2026-04-25 09:37 | 2.67221 | 101.72215 | 876 ft | 160 kts | 325° |
| 2026-04-25 09:37 | 2.68112 | 101.71614 | 696 ft | 152 kts | 325° |
| 2026-04-25 09:38 | 2.68988 | 101.71019 | 518 ft | 151 kts | 325° |
| 2026-04-25 09:38 | 2.69846 | 101.70433 | 328 ft | 150 kts | 324° |
| 2026-04-25 09:38 | 2.70703 | 101.69860 | 139 ft | 148 kts | 323° |
| 2026-04-25 09:38 | 2.71540 | 101.69288 | 38 ft | 128 kts | 326° |
| 2026-04-25 09:39 | 2.72026 | 101.68953 | 39 ft | 53 kts | 325° |
| 2026-04-25 09:39 | 2.72304 | 101.68765 | 37 ft | 39 kts | 327° |
| 2026-04-25 09:39 | 2.72512 | 101.68626 | 36 ft | 33 kts | 326° |
| 2026-04-25 09:40 | 2.72845 | 101.68424 | 39 ft | 19 kts | 345° |
| 2026-04-25 09:40 | 2.72930 | 101.68350 | 39 ft | 17 kts | 311° |
| 2026-04-25 09:40 | 2.73040 | 101.68270 | 38 ft | 22 kts | 324° |
| 2026-04-25 09:40 | 2.73188 | 101.68172 | 37 ft | 28 kts | 326° |
| 2026-04-25 09:41 | 2.73357 | 101.68058 | 35 ft | 30 kts | 326° |
| 2026-04-25 09:41 | 2.73514 | 101.67966 | 36 ft | 20 kts | 345° |
| 2026-04-25 09:41 | 2.73591 | 101.67992 | 35 ft | 8 kts | 42° |
| 2026-04-25 09:41 | 2.73614 | 101.68021 | 37 ft | 1 kts | 57° |
| 2026-04-25 09:42 | 2.73620 | 101.68030 | 37 ft | 3 kts | 57° |
| 2026-04-25 09:42 | 2.73634 | 101.68051 | 37 ft | 5 kts | 57° |
| 2026-04-25 09:42 | 2.73661 | 101.68092 | 38 ft | 10 kts | 56° |
| 2026-04-25 09:42 | 2.73713 | 101.68168 | 38 ft | 16 kts | 56° |
| 2026-04-25 09:43 | 2.73777 | 101.68264 | 41 ft | 18 kts | 56° |
| 2026-04-25 09:43 | 2.73836 | 101.68349 | 42 ft | 15 kts | 56° |
| 2026-04-25 09:43 | 2.73890 | 101.68431 | 42 ft | 14 kts | 56° |
| 2026-04-25 09:43 | 2.73943 | 101.68510 | 42 ft | 14 kts | 56° |
| 2026-04-25 09:44 | 2.73999 | 101.68593 | 42 ft | 15 kts | 56° |
| 2026-04-25 09:44 | 2.74040 | 101.68653 | 42 ft | 5 kts | 56° |
| 2026-04-25 09:44 | 2.74065 | 101.68655 | 42 ft | 3 kts | 343° |
| 2026-04-25 09:44 | 2.74083 | 101.68644 | 42 ft | 3 kts | 324° |
| 2026-04-25 09:45 | 2.74095 | 101.68635 | 40 ft | 2 kts | 326° |
| 2026-04-25 09:45 | 2.74110 | 101.68625 | 42 ft | 3 kts | 326° |
| 2026-04-25 09:45 | 2.74125 | 101.68615 | 42 ft | 2 kts | 326° |
| 2026-04-25 09:45 | 2.74126 | 101.68614 | 42 ft | 0 kts | 326° |
| 2026-04-25 09:46 | 2.74128 | 101.68613 | 42 ft | 0 kts | 326° |